sensor_id;sensor_type;location;lat;lon;timestamp;pressure;altitude;pressure_sealevel;temperature;humidity
71966;BME280;59836;52.132;5.442;2023-12-20T00:02:08;101586.88;;;7.02;100.00
71966;BME280;59836;52.132;5.442;2023-12-20T00:04:34;101591.44;;;7.01;100.00
71966;BME280;59836;52.132;5.442;2023-12-20T00:07:01;101586.88;;;7.02;100.00
71966;BME280;59836;52.132;5.442;2023-12-20T00:09:28;101583.34;;;7.01;100.00
71966;BME280;59836;52.132;5.442;2023-12-20T00:11:55;101582.53;;;7.01;100.00
71966;BME280;59836;52.132;5.442;2023-12-20T00:14:21;101582.75;;;6.99;100.00
71966;BME280;59836;52.132;5.442;2023-12-20T00:16:48;101577.00;;;6.96;100.00
71966;BME280;59836;52.132;5.442;2023-12-20T00:19:14;101572.41;;;6.96;100.00
71966;BME280;59836;52.132;5.442;2023-12-20T00:21:41;101576.16;;;6.95;100.00
71966;BME280;59836;52.132;5.442;2023-12-20T00:24:07;101578.25;;;6.93;100.00
71966;BME280;59836;52.132;5.442;2023-12-20T00:26:34;101575.44;;;6.88;100.00
71966;BME280;59836;52.132;5.442;2023-12-20T00:29:00;101563.22;;;6.85;100.00
71966;BME280;59836;52.132;5.442;2023-12-20T00:31:27;101570.50;;;6.85;100.00
71966;BME280;59836;52.132;5.442;2023-12-20T00:33:53;101575.06;;;6.84;100.00
71966;BME280;59836;52.132;5.442;2023-12-20T00:36:21;101574.00;;;6.85;100.00
71966;BME280;59836;52.132;5.442;2023-12-20T00:38:47;101578.81;;;6.83;100.00
71966;BME280;59836;52.132;5.442;2023-12-20T00:41:14;101583.38;;;6.83;100.00
71966;BME280;59836;52.132;5.442;2023-12-20T00:43:40;101572.22;;;6.79;100.00
71966;BME280;59836;52.132;5.442;2023-12-20T00:46:07;101574.09;;;6.78;100.00
71966;BME280;59836;52.132;5.442;2023-12-20T00:48:33;101575.16;;;6.77;100.00
71966;BME280;59836;52.132;5.442;2023-12-20T00:51:06;101563.53;;;6.77;100.00
71966;BME280;59836;52.132;5.442;2023-12-20T00:53:32;101566.47;;;6.75;100.00
71966;BME280;59836;52.132;5.442;2023-12-20T00:55:59;101570.22;;;6.74;100.00
71966;BME280;59836;52.132;5.442;2023-12-20T00:58:30;101576.06;;;6.71;100.00
71966;BME280;59836;52.132;5.442;2023-12-20T01:00:57;101572.75;;;6.69;100.00
71966;BME280;59836;52.132;5.442;2023-12-20T01:03:24;101577.09;;;6.70;100.00
71966;BME280;59836;52.132;5.442;2023-12-20T01:05:51;101573.81;;;6.68;100.00
71966;BME280;59836;52.132;5.442;2023-12-20T01:08:17;101563.25;;;6.67;100.00
71966;BME280;59836;52.132;5.442;2023-12-20T01:10:44;101558.91;;;6.65;100.00
71966;BME280;59836;52.132;5.442;2023-12-20T01:13:10;101555.84;;;6.62;100.00
71966;BME280;59836;52.132;5.442;2023-12-20T01:15:54;101556.66;;;6.62;100.00
71966;BME280;59836;52.132;5.442;2023-12-20T01:18:21;101554.78;;;6.63;100.00
71966;BME280;59836;52.132;5.442;2023-12-20T01:20:48;101557.94;;;6.60;100.00
71966;BME280;59836;52.132;5.442;2023-12-20T01:23:15;101552.56;;;6.60;100.00
71966;BME280;59836;52.132;5.442;2023-12-20T01:25:41;101563.53;;;6.58;100.00
71966;BME280;59836;52.132;5.442;2023-12-20T01:28:08;101570.81;;;6.58;100.00
71966;BME280;59836;52.132;5.442;2023-12-20T01:30:34;101582.66;;;6.57;100.00
71966;BME280;59836;52.132;5.442;2023-12-20T01:33:01;101577.84;;;6.59;100.00
71966;BME280;59836;52.132;5.442;2023-12-20T01:35:28;101578.91;;;6.58;100.00
71966;BME280;59836;52.132;5.442;2023-12-20T01:37:55;101579.94;;;6.57;100.00
71966;BME280;59836;52.132;5.442;2023-12-20T01:40:23;101571.88;;;6.57;100.00
71966;BME280;59836;52.132;5.442;2023-12-20T01:43:03;101575.81;;;6.54;100.00
71966;BME280;59836;52.132;5.442;2023-12-20T01:45:31;101565.88;;;6.55;100.00
71966;BME280;59836;52.132;5.442;2023-12-20T01:47:58;101567.72;;;6.54;100.00
71966;BME280;59836;52.132;5.442;2023-12-20T01:50:27;101565.88;;;6.55;100.00
71966;BME280;59836;52.132;5.442;2023-12-20T01:52:55;101555.09;;;6.55;100.00
71966;BME280;59836;52.132;5.442;2023-12-20T01:55:25;101567.53;;;6.56;100.00
71966;BME280;59836;52.132;5.442;2023-12-20T01:57:52;101563.78;;;6.57;100.00
71966;BME280;59836;52.132;5.442;2023-12-20T02:00:19;101570.81;;;6.58;100.00
71966;BME280;59836;52.132;5.442;2023-12-20T02:02:50;101564.38;;;6.59;100.00
71966;BME280;59836;52.132;5.442;2023-12-20T02:05:25;101571.41;;;6.60;100.00
71966;BME280;59836;52.132;5.442;2023-12-20T02:07:52;101566.84;;;6.60;100.00
71966;BME280;59836;52.132;5.442;2023-12-20T02:10:18;101572.47;;;6.59;100.00
71966;BME280;59836;52.132;5.442;2023-12-20T02:12:51;101567.66;;;6.61;100.00
71966;BME280;59836;52.132;5.442;2023-12-20T02:15:18;101561.09;;;6.57;100.00
71966;BME280;59836;52.132;5.442;2023-12-20T02:17:46;101553.00;;;6.57;100.00
71966;BME280;59836;52.132;5.442;2023-12-20T02:20:16;101557.53;;;6.56;100.00
71966;BME280;59836;52.132;5.442;2023-12-20T02:22:42;101558.38;;;6.57;100.00
71966;BME280;59836;52.132;5.442;2023-12-20T02:25:19;101555.25;;;6.60;100.00
71966;BME280;59836;52.132;5.442;2023-12-20T02:27:46;101560.03;;;6.58;100.00
71966;BME280;59836;52.132;5.442;2023-12-20T02:30:13;101560.03;;;6.58;100.00
71966;BME280;59836;52.132;5.442;2023-12-20T02:32:54;101557.09;;;6.59;100.00
71966;BME280;59836;52.132;5.442;2023-12-20T02:35:21;101551.72;;;6.59;100.00
71966;BME280;59836;52.132;5.442;2023-12-20T02:37:47;101557.94;;;6.60;100.00
71966;BME280;59836;52.132;5.442;2023-12-20T02:40:35;101550.91;;;6.59;100.00
71966;BME280;59836;52.132;5.442;2023-12-20T02:43:08;101539.06;;;6.60;100.00
71966;BME280;59836;52.132;5.442;2023-12-20T02:45:34;101544.47;;;6.60;100.00
71966;BME280;59836;52.132;5.442;2023-12-20T02:48:01;101534.72;;;6.59;100.00
71966;BME280;59836;52.132;5.442;2023-12-20T02:50:28;101540.13;;;6.59;100.00
71966;BME280;59836;52.132;5.442;2023-12-20T02:53:09;101538.03;;;6.61;100.00
71966;BME280;59836;52.132;5.442;2023-12-20T02:55:35;101539.66;;;6.62;100.00
71966;BME280;59836;52.132;5.442;2023-12-20T02:58:23;101538.63;;;6.63;100.00
71966;BME280;59836;52.132;5.442;2023-12-20T03:04:00;101527.25;;;6.61;100.00
71966;BME280;59836;52.132;5.442;2023-12-20T03:06:27;101525.59;;;6.60;100.00
71966;BME280;59836;52.132;5.442;2023-12-20T03:08:55;101529.09;;;6.60;100.00
71966;BME280;59836;52.132;5.442;2023-12-20T03:11:39;101519.38;;;6.59;100.00
71966;BME280;59836;52.132;5.442;2023-12-20T03:14:19;101525.59;;;6.60;100.00
71966;BME280;59836;52.132;5.442;2023-12-20T03:16:55;101521.84;;;6.61;100.00
71966;BME280;59836;52.132;5.442;2023-12-20T03:22:35;101516.81;;;6.64;100.00
71966;BME280;59836;52.132;5.442;2023-12-20T03:25:02;101511.44;;;6.64;100.00
71966;BME280;59836;52.132;5.442;2023-12-20T03:27:28;101501.47;;;6.65;100.00
71966;BME280;59836;52.132;5.442;2023-12-20T03:30:04;101494.44;;;6.64;100.00
71966;BME280;59836;52.132;5.442;2023-12-20T03:32:34;101496.09;;;6.65;100.00
71966;BME280;59836;52.132;5.442;2023-12-20T03:35:23;101502.53;;;6.64;100.00
71966;BME280;59836;52.132;5.442;2023-12-20T03:37:49;101500.66;;;6.64;100.00
71966;BME280;59836;52.132;5.442;2023-12-20T03:40:21;101505.81;;;6.66;100.00
71966;BME280;59836;52.132;5.442;2023-12-20T03:42:55;101511.22;;;6.66;100.00
71966;BME280;59836;52.132;5.442;2023-12-20T03:45:21;101506.88;;;6.65;100.00
71966;BME280;59836;52.132;5.442;2023-12-20T03:47:49;101511.81;;;6.68;100.00
71966;BME280;59836;52.132;5.442;2023-12-20T03:50:16;101509.72;;;6.70;100.00
71966;BME280;59836;52.132;5.442;2023-12-20T03:52:43;101510.75;;;6.69;100.00
71966;BME280;59836;52.132;5.442;2023-12-20T03:55:09;101504.31;;;6.70;100.00
71966;BME280;59836;52.132;5.442;2023-12-20T03:57:49;101511.34;;;6.71;100.00
71966;BME280;59836;52.132;5.442;2023-12-20T04:00:44;101497.28;;;6.69;100.00
71966;BME280;59836;52.132;5.442;2023-12-20T04:03:11;101499.38;;;6.67;100.00
71966;BME280;59836;52.132;5.442;2023-12-20T04:05:40;101499.38;;;6.67;100.00
71966;BME280;59836;52.132;5.442;2023-12-20T04:08:13;101508.88;;;6.70;100.00
71966;BME280;59836;52.132;5.442;2023-12-20T04:10:53;101497.28;;;6.69;100.00
71966;BME280;59836;52.132;5.442;2023-12-20T04:13:50;101510.75;;;6.69;100.00
71966;BME280;59836;52.132;5.442;2023-12-20T04:16:16;101503.28;;;6.71;100.00
71966;BME280;59836;52.132;5.442;2023-12-20T04:18:56;101489.78;;;6.71;100.00
71966;BME280;59836;52.132;5.442;2023-12-20T04:21:23;101489.78;;;6.71;100.00
71966;BME280;59836;52.132;5.442;2023-12-20T04:23:54;101493.09;;;6.73;100.00
71966;BME280;59836;52.132;5.442;2023-12-20T04:26:20;101482.31;;;6.73;100.00
71966;BME280;59836;52.132;5.442;2023-12-20T04:28:47;101495.78;;;6.73;100.00
71966;BME280;59836;52.132;5.442;2023-12-20T04:31:13;101486.66;;;6.74;100.00
71966;BME280;59836;52.132;5.442;2023-12-20T04:33:40;101495.53;;;6.75;100.00
71966;BME280;59836;52.132;5.442;2023-12-20T04:36:10;101500.72;;;6.76;100.00
71966;BME280;59836;52.132;5.442;2023-12-20T04:38:36;101496.97;;;6.77;100.00
71966;BME280;59836;52.132;5.442;2023-12-20T04:41:08;101502.38;;;6.77;100.00
71966;BME280;59836;52.132;5.442;2023-12-20T04:43:40;101494.03;;;6.79;100.00
71966;BME280;59836;52.132;5.442;2023-12-20T04:46:06;101483.03;;;6.81;100.00
71966;BME280;59836;52.132;5.442;2023-12-20T04:48:34;101485.94;;;6.79;100.00
71966;BME280;59836;52.132;5.442;2023-12-20T04:51:04;101496.28;;;6.82;100.00
71966;BME280;59836;52.132;5.442;2023-12-20T04:53:31;101495.47;;;6.82;100.00
71966;BME280;59836;52.132;5.442;2023-12-20T04:56:02;101485.28;;;6.84;100.00
71966;BME280;59836;52.132;5.442;2023-12-20T04:58:34;101485.88;;;6.86;100.00
71966;BME280;59836;52.132;5.442;2023-12-20T05:01:05;101479.19;;;6.88;100.00
71966;BME280;59836;52.132;5.442;2023-12-20T05:03:33;101475.69;;;6.88;100.00
71966;BME280;59836;52.132;5.442;2023-12-20T05:05:59;101474.63;;;6.89;100.00
71966;BME280;59836;52.132;5.442;2023-12-20T05:08:26;101478.72;;;6.91;100.00
71966;BME280;59836;52.132;5.442;2023-12-20T05:10:55;101486.81;;;6.91;100.00
71966;BME280;59836;52.132;5.442;2023-12-20T05:13:22;101489.28;;;6.93;100.00
71966;BME280;59836;52.132;5.442;2023-12-20T05:16:03;101478.47;;;6.93;100.00
71966;BME280;59836;52.132;5.442;2023-12-20T05:18:29;101482.81;;;6.94;100.00
71966;BME280;59836;52.132;5.442;2023-12-20T05:21:02;101491.97;;;6.93;100.00
71966;BME280;59836;52.132;5.442;2023-12-20T05:23:32;101483.41;;;6.96;100.00
71966;BME280;59836;52.132;5.442;2023-12-20T05:26:09;101492.34;;;6.97;100.00
71966;BME280;59836;52.132;5.442;2023-12-20T05:28:36;101484.25;;;6.97;100.00
71966;BME280;59836;52.132;5.442;2023-12-20T05:31:02;101484.00;;;6.98;100.00
71966;BME280;59836;52.132;5.442;2023-12-20T05:33:29;101482.38;;;6.97;100.00
71966;BME280;59836;52.132;5.442;2023-12-20T05:35:56;101480.72;;;6.96;100.00
71966;BME280;59836;52.132;5.442;2023-12-20T05:38:24;101481.56;;;6.97;100.00
71966;BME280;59836;52.132;5.442;2023-12-20T05:40:50;101485.06;;;6.97;100.00
71966;BME280;59836;52.132;5.442;2023-12-20T05:43:17;101483.41;;;6.96;100.00
71966;BME280;59836;52.132;5.442;2023-12-20T05:45:43;101479.66;;;6.97;100.00
71966;BME280;59836;52.132;5.442;2023-12-20T05:48:10;101482.38;;;6.97;100.00
71966;BME280;59836;52.132;5.442;2023-12-20T05:50:51;101486.72;;;6.98;100.00
71966;BME280;59836;52.132;5.442;2023-12-20T05:53:18;101484.00;;;6.98;100.00
71966;BME280;59836;52.132;5.442;2023-12-20T05:56:03;101479.47;;;6.99;100.00
71966;BME280;59836;52.132;5.442;2023-12-20T05:58:36;101478.63;;;6.98;100.00
71966;BME280;59836;52.132;5.442;2023-12-20T06:01:05;101481.09;;;7.00;100.00
71966;BME280;59836;52.132;5.442;2023-12-20T06:03:34;101483.56;;;7.01;100.00
71966;BME280;59836;52.132;5.442;2023-12-20T06:06:07;101491.44;;;7.03;100.00
71966;BME280;59836;52.132;5.442;2023-12-20T06:08:42;101478.16;;;7.01;100.00
71966;BME280;59836;52.132;5.442;2023-12-20T06:11:10;101480.84;;;7.01;100.00
71966;BME280;59836;52.132;5.442;2023-12-20T06:13:37;101481.44;;;7.03;100.00
71966;BME280;59836;52.132;5.442;2023-12-20T06:16:05;101479.59;;;7.04;100.00
71966;BME280;59836;52.132;5.442;2023-12-20T06:18:32;101476.06;;;7.03;100.00
71966;BME280;59836;52.132;5.442;2023-12-20T06:20:59;101463.63;;;7.02;100.00
71966;BME280;59836;52.132;5.442;2023-12-20T06:23:27;101465.72;;;7.00;100.00
71966;BME280;59836;52.132;5.442;2023-12-20T06:25:54;101469.03;;;7.02;100.00
71966;BME280;59836;52.132;5.442;2023-12-20T06:28:20;101461.53;;;7.04;100.00
71966;BME280;59836;52.132;5.442;2023-12-20T06:30:47;101470.66;;;7.03;100.00
71966;BME280;59836;52.132;5.442;2023-12-20T06:33:17;101471.50;;;7.04;100.00
71966;BME280;59836;52.132;5.442;2023-12-20T06:35:49;101479.34;;;7.05;100.00
71966;BME280;59836;52.132;5.442;2023-12-20T06:38:18;101465.88;;;7.05;100.00
71966;BME280;59836;52.132;5.442;2023-12-20T06:40:44;101464.81;;;7.06;100.00
71966;BME280;59836;52.132;5.442;2023-12-20T06:43:12;101473.50;;;7.08;100.00
71966;BME280;59836;52.132;5.442;2023-12-20T06:45:57;101470.78;;;7.08;100.00
71966;BME280;59836;52.132;5.442;2023-12-20T06:48:24;101467.03;;;7.09;100.00
71966;BME280;59836;52.132;5.442;2023-12-20T06:50:51;101454.41;;;7.10;100.00
71966;BME280;59836;52.132;5.442;2023-12-20T06:53:17;101448.16;;;7.09;100.00
71966;BME280;59836;52.132;5.442;2023-12-20T06:55:44;101443.38;;;7.12;100.00
71966;BME280;59836;52.132;5.442;2023-12-20T06:58:10;101453.94;;;7.13;100.00
71966;BME280;59836;52.132;5.442;2023-12-20T07:00:37;101452.28;;;7.12;100.00
71966;BME280;59836;52.132;5.442;2023-12-20T07:03:04;101449.34;;;7.14;100.00
71966;BME280;59836;52.132;5.442;2023-12-20T07:05:31;101449.34;;;7.14;100.00
71966;BME280;59836;52.132;5.442;2023-12-20T07:07:57;101445.84;;;7.13;100.00
71966;BME280;59836;52.132;5.442;2023-12-20T07:10:24;101458.28;;;7.14;100.00
71966;BME280;59836;52.132;5.442;2023-12-20T07:12:51;101458.03;;;7.16;100.00
71966;BME280;59836;52.132;5.442;2023-12-20T07:15:18;101453.69;;;7.15;100.00
71966;BME280;59836;52.132;5.442;2023-12-20T07:17:45;101453.69;;;7.15;100.00
71966;BME280;59836;52.132;5.442;2023-12-20T07:20:12;101448.09;;;7.16;100.00
71966;BME280;59836;52.132;5.442;2023-12-20T07:22:39;101444.53;;;7.16;100.00
71966;BME280;59836;52.132;5.442;2023-12-20T07:25:06;101443.50;;;7.17;100.00
71966;BME280;59836;52.132;5.442;2023-12-20T07:27:33;101446.78;;;7.19;100.00
71966;BME280;59836;52.132;5.442;2023-12-20T07:29:59;101441.38;;;7.19;100.00
71966;BME280;59836;52.132;5.442;2023-12-20T07:32:26;101448.41;;;7.20;100.00
71966;BME280;59836;52.132;5.442;2023-12-20T07:34:53;101441.97;;;7.21;100.00
71966;BME280;59836;52.132;5.442;2023-12-20T07:37:21;101442.56;;;7.23;100.00
71966;BME280;59836;52.132;5.442;2023-12-20T07:39:48;101432.03;;;7.21;100.00
71966;BME280;59836;52.132;5.442;2023-12-20T07:42:14;101435.06;;;7.25;100.00
71966;BME280;59836;52.132;5.442;2023-12-20T07:44:41;101430.50;;;7.26;100.00
71966;BME280;59836;52.132;5.442;2023-12-20T07:47:08;101438.81;;;7.24;100.00
71966;BME280;59836;52.132;5.442;2023-12-20T07:49:34;101445.84;;;7.25;100.00
71966;BME280;59836;52.132;5.442;2023-12-20T07:52:01;101444.00;;;7.26;100.00
71966;BME280;59836;52.132;5.442;2023-12-20T07:54:27;101458.06;;;7.28;100.00
71966;BME280;59836;52.132;5.442;2023-12-20T07:56:55;101462.63;;;7.27;100.00
71966;BME280;59836;52.132;5.442;2023-12-20T07:59:21;101466.16;;;7.28;100.00
71966;BME280;59836;52.132;5.442;2023-12-20T08:01:58;101466.50;;;7.31;100.00
71966;BME280;59836;52.132;5.442;2023-12-20T08:04:25;101465.69;;;7.31;100.00
71966;BME280;59836;52.132;5.442;2023-12-20T08:06:52;101466.50;;;7.31;100.00
71966;BME280;59836;52.132;5.442;2023-12-20T08:09:19;101474.59;;;7.31;100.00
71966;BME280;59836;52.132;5.442;2023-12-20T08:11:46;101482.69;;;7.31;100.00
71966;BME280;59836;52.132;5.442;2023-12-20T08:14:14;101483.53;;;7.32;100.00
71966;BME280;59836;52.132;5.442;2023-12-20T08:16:43;101471.91;;;7.31;100.00
71966;BME280;59836;52.132;5.442;2023-12-20T08:19:09;101476.03;;;7.34;100.00
71966;BME280;59836;52.132;5.442;2023-12-20T08:21:36;101473.09;;;7.35;100.00
71966;BME280;59836;52.132;5.442;2023-12-20T08:24:04;101465.84;;;7.36;100.00
71966;BME280;59836;52.132;5.442;2023-12-20T08:26:32;101467.22;;;7.38;100.00
71966;BME280;59836;52.132;5.442;2023-12-20T08:28:59;101466.41;;;7.38;100.00
71966;BME280;59836;52.132;5.442;2023-12-20T08:31:28;101458.53;;;7.36;100.00
71966;BME280;59836;52.132;5.442;2023-12-20T08:33:54;101467.22;;;7.38;100.00
71966;BME280;59836;52.132;5.442;2023-12-20T08:36:21;101461.25;;;7.36;100.00
71966;BME280;59836;52.132;5.442;2023-12-20T08:38:50;101457.50;;;7.37;100.00
71966;BME280;59836;52.132;5.442;2023-12-20T08:41:17;101462.66;;;7.39;100.00
71966;BME280;59836;52.132;5.442;2023-12-20T08:43:44;101457.28;;;7.39;100.00
71966;BME280;59836;52.132;5.442;2023-12-20T08:46:10;101460.56;;;7.41;100.00
71966;BME280;59836;52.132;5.442;2023-12-20T08:48:38;101461.38;;;7.42;100.00
71966;BME280;59836;52.132;5.442;2023-12-20T08:51:05;101460.06;;;7.44;100.00
71966;BME280;59836;52.132;5.442;2023-12-20T08:53:35;101455.50;;;7.45;100.00
71966;BME280;59836;52.132;5.442;2023-12-20T08:56:01;101453.84;;;7.44;100.00
71966;BME280;59836;52.132;5.442;2023-12-20T08:58:28;101461.72;;;7.45;100.00
71966;BME280;59836;52.132;5.442;2023-12-20T09:00:55;101456.31;;;7.45;100.00
71966;BME280;59836;52.132;5.442;2023-12-20T09:03:24;101455.50;;;7.45;100.00
71966;BME280;59836;52.132;5.442;2023-12-20T09:05:50;101460.91;;;7.45;100.00
71966;BME280;59836;52.132;5.442;2023-12-20T09:08:17;101466.31;;;7.45;100.00
71966;BME280;59836;52.132;5.442;2023-12-20T09:10:43;101460.91;;;7.45;100.00
71966;BME280;59836;52.132;5.442;2023-12-20T09:13:11;101457.59;;;7.43;100.00
71966;BME280;59836;52.132;5.442;2023-12-20T09:15:38;101452.69;;;7.39;100.00
71966;BME280;59836;52.132;5.442;2023-12-20T09:18:05;101456.22;;;7.40;100.00
71966;BME280;59836;52.132;5.442;2023-12-20T09:20:32;101453.53;;;7.40;100.00
71966;BME280;59836;52.132;5.442;2023-12-20T09:22:59;101449.75;;;7.41;100.00
71966;BME280;59836;52.132;5.442;2023-12-20T09:25:26;101453.28;;;7.42;100.00
71966;BME280;59836;52.132;5.442;2023-12-20T09:27:53;101454.56;;;7.39;100.00
71966;BME280;59836;52.132;5.442;2023-12-20T09:30:20;101458.06;;;7.39;100.00
71966;BME280;59836;52.132;5.442;2023-12-20T09:32:54;101445.19;;;7.42;100.00
71966;BME280;59836;52.132;5.442;2023-12-20T09:35:20;101451.63;;;7.41;100.00
71966;BME280;59836;52.132;5.442;2023-12-20T09:37:47;101459.25;;;7.44;100.00
71966;BME280;59836;52.132;5.442;2023-12-20T09:40:19;101446.56;;;7.44;100.00
71966;BME280;59836;52.132;5.442;2023-12-20T09:42:57;101450.09;;;7.45;100.00
71966;BME280;59836;52.132;5.442;2023-12-20T09:45:24;101462.28;;;7.47;100.00
71966;BME280;59836;52.132;5.442;2023-12-20T09:47:53;101456.09;;;7.47;100.00
71966;BME280;59836;52.132;5.442;2023-12-20T09:50:22;101465.84;;;7.48;100.00
71966;BME280;59836;52.132;5.442;2023-12-20T09:52:53;101466.19;;;7.51;100.00
71966;BME280;59836;52.132;5.442;2023-12-20T09:55:24;101462.41;;;7.52;100.00
71966;BME280;59836;52.132;5.442;2023-12-20T09:57:51;101450.34;;;7.55;100.00
71966;BME280;59836;52.132;5.442;2023-12-20T10:00:18;101449.28;;;7.56;100.00
71966;BME280;59836;52.132;5.442;2023-12-20T10:02:50;101451.53;;;7.59;100.00
71966;BME280;59836;52.132;5.442;2023-12-20T10:05:33;101454.81;;;7.61;100.00
71966;BME280;59836;52.132;5.442;2023-12-20T10:08:01;101463.50;;;7.63;100.00
71966;BME280;59836;52.132;5.442;2023-12-20T10:10:28;101465.72;;;7.66;100.00
71966;BME280;59836;52.132;5.442;2023-12-20T10:13:11;101454.69;;;7.68;100.00
71966;BME280;59836;52.132;5.442;2023-12-20T10:15:38;101461.72;;;7.69;100.00
71966;BME280;59836;52.132;5.442;2023-12-20T10:18:05;101472.31;;;7.71;100.00
71966;BME280;59836;52.132;5.442;2023-12-20T10:20:32;101482.06;;;7.72;100.00
71966;BME280;59836;52.132;5.442;2023-12-20T10:23:00;101467.50;;;7.73;100.00
71966;BME280;59836;52.132;5.442;2023-12-20T10:25:28;101471.84;;;7.74;100.00
71966;BME280;59836;52.132;5.442;2023-12-20T10:30:37;101459.50;;;7.78;100.00
71966;BME280;59836;52.132;5.442;2023-12-20T10:33:05;101454.13;;;7.78;100.00
71966;BME280;59836;52.132;5.442;2023-12-20T10:35:37;101454.69;;;7.80;100.00
71966;BME280;59836;52.132;5.442;2023-12-20T10:38:06;101442.00;;;7.80;100.00
71966;BME280;59836;52.132;5.442;2023-12-20T10:40:34;101454.44;;;7.81;100.00
71966;BME280;59836;52.132;5.442;2023-12-20T10:43:03;101454.22;;;7.83;100.00
71966;BME280;59836;52.132;5.442;2023-12-20T10:45:30;101457.72;;;7.83;100.00
71966;BME280;59836;52.132;5.442;2023-12-20T10:47:58;101442.38;;;7.84;100.00
71966;BME280;59836;52.132;5.442;2023-12-20T10:50:28;101444.81;;;7.86;100.00
71966;BME280;59836;52.132;5.442;2023-12-20T10:52:57;101431.09;;;7.87;100.00
71966;BME280;59836;52.132;5.442;2023-12-20T10:55:24;101434.84;;;7.86;100.00
71966;BME280;59836;52.132;5.442;2023-12-20T10:57:54;101436.50;;;7.87;100.00
71966;BME280;59836;52.132;5.442;2023-12-20T11:00:23;101440.13;;;7.93;100.00
71966;BME280;59836;52.132;5.442;2023-12-20T11:02:49;101438.81;;;7.95;100.00
71966;BME280;59836;52.132;5.442;2023-12-20T11:05:44;101429.66;;;7.96;100.00
71966;BME280;59836;52.132;5.442;2023-12-20T11:08:24;101432.94;;;7.98;100.00
71966;BME280;59836;52.132;5.442;2023-12-20T11:11:23;101423.75;;;8.00;100.00
71966;BME280;59836;52.132;5.442;2023-12-20T11:13:58;101423.28;;;8.03;100.00
71966;BME280;59836;52.132;5.442;2023-12-20T11:16:26;101417.19;;;8.07;100.00
71966;BME280;59836;52.132;5.442;2023-12-20T11:19:06;101422.69;;;8.12;100.00
71966;BME280;59836;52.132;5.442;2023-12-20T11:21:33;101427.84;;;8.14;100.00
71966;BME280;59836;52.132;5.442;2023-12-20T11:24:01;101415.97;;;8.15;100.00
71966;BME280;59836;52.132;5.442;2023-12-20T11:26:29;101408.94;;;8.14;100.00
71966;BME280;59836;52.132;5.442;2023-12-20T11:29:30;101401.09;;;8.12;100.00
71966;BME280;59836;52.132;5.442;2023-12-20T11:32:00;101401.31;;;8.11;100.00
71966;BME280;59836;52.132;5.442;2023-12-20T11:34:28;101396.50;;;8.13;100.00
71966;BME280;59836;52.132;5.442;2023-12-20T11:37:02;101400.94;;;8.19;100.00
71966;BME280;59836;52.132;5.442;2023-12-20T11:39:30;101393.41;;;8.21;100.00
71966;BME280;59836;52.132;5.442;2023-12-20T11:41:57;101399.97;;;8.25;100.00
71966;BME280;59836;52.132;5.442;2023-12-20T11:44:25;101391.41;;;8.28;100.00
71966;BME280;59836;52.132;5.442;2023-12-20T11:46:52;101394.34;;;8.27;100.00
71966;BME280;59836;52.132;5.442;2023-12-20T11:49:23;101379.78;;;8.28;100.00
71966;BME280;59836;52.132;5.442;2023-12-20T11:51:50;101377.06;;;8.28;100.00
71966;BME280;59836;52.132;5.442;2023-12-20T11:54:18;101372.47;;;8.28;100.00
71966;BME280;59836;52.132;5.442;2023-12-20T11:56:44;101374.13;;;8.30;100.00
71966;BME280;59836;52.132;5.442;2023-12-20T11:59:11;101366.59;;;8.32;100.00
71966;BME280;59836;52.132;5.442;2023-12-20T12:01:49;101370.13;;;8.32;100.00
71966;BME280;59836;52.132;5.442;2023-12-20T12:04:17;101362.81;;;8.33;100.00
71966;BME280;59836;52.132;5.442;2023-12-20T12:06:44;101366.38;;;8.33;100.00
71966;BME280;59836;52.132;5.442;2023-12-20T12:09:12;101374.47;;;8.33;100.00
71966;BME280;59836;52.132;5.442;2023-12-20T12:11:38;101365.53;;;8.33;100.00
71966;BME280;59836;52.132;5.442;2023-12-20T12:14:06;101369.88;;;8.34;100.00
71966;BME280;59836;52.132;5.442;2023-12-20T12:16:33;101386.09;;;8.34;100.00
71966;BME280;59836;52.132;5.442;2023-12-20T12:19:00;101384.44;;;8.33;100.00
71966;BME280;59836;52.132;5.442;2023-12-20T12:21:27;101386.09;;;8.34;100.00
71966;BME280;59836;52.132;5.442;2023-12-20T12:24:08;101377.75;;;8.35;100.00
71966;BME280;59836;52.132;5.442;2023-12-20T12:26:35;101378.56;;;8.36;100.00
71966;BME280;59836;52.132;5.442;2023-12-20T12:29:02;101376.69;;;8.36;100.00
71966;BME280;59836;52.132;5.442;2023-12-20T12:31:28;101362.91;;;8.38;100.00
71966;BME280;59836;52.132;5.442;2023-12-20T12:33:56;101360.22;;;8.38;100.00
71966;BME280;59836;52.132;5.442;2023-12-20T12:36:23;101345.66;;;8.39;100.00
71966;BME280;59836;52.132;5.442;2023-12-20T12:38:50;101341.06;;;8.39;100.00
71966;BME280;59836;52.132;5.442;2023-12-20T12:41:17;101355.38;;;8.40;100.00
71966;BME280;59836;52.132;5.442;2023-12-20T12:43:44;101353.53;;;8.40;100.00
71966;BME280;59836;52.132;5.442;2023-12-20T12:46:10;101336.47;;;8.40;100.00
71966;BME280;59836;52.132;5.442;2023-12-20T12:48:37;101330.00;;;8.41;100.00
71966;BME280;59836;52.132;5.442;2023-12-20T12:51:06;101322.72;;;8.41;100.00
71966;BME280;59836;52.132;5.442;2023-12-20T12:53:39;101339.75;;;8.42;100.00
71966;BME280;59836;52.132;5.442;2023-12-20T12:56:06;101327.31;;;8.41;100.00
71966;BME280;59836;52.132;5.442;2023-12-20T12:58:32;101338.13;;;8.41;100.00
71966;BME280;59836;52.132;5.442;2023-12-20T13:00:59;101332.72;;;8.41;100.00
71966;BME280;59836;52.132;5.442;2023-12-20T13:03:26;101316.50;;;8.41;100.00
71966;BME280;59836;52.132;5.442;2023-12-20T13:05:52;101311.09;;;8.41;100.00
71966;BME280;59836;52.132;5.442;2023-12-20T13:08:19;101311.34;;;8.39;100.00
71966;BME280;59836;52.132;5.442;2023-12-20T13:10:45;101315.09;;;8.38;100.00